首页
METAR-TAF:

METAR-TAF

机场 :

博韦, 法国

纬度: 49-28N, 经度: 002-07E, 海拔: 109米

当前天气观测

该预报发布于34分钟前的01:00 UTC
风速4节,风向西转西南
温度 13°C
湿度 94%
气压 1009 hPa
能见度10公里或以上
多云层高于700英尺
多云层高于1200英尺
阴天层高于1800英尺

METAR: LFOB 170100Z AUTO 25004KT 9999 BKN007 BKN012 OVC018 13/12 Q1009 TEMPO SCT012 BKN020

时间: 03:34 (01:34 UTC)

预报

该预报发布于2小时和34分钟前的23:00 UTC
预报有效从17日的 00点(UTC)到 17日的 24点(UTC)
风速10节,风向西
能見度: 3000
多云层高于400英尺
阴天层高于2000英尺
毛毛雨, 雨
成为
从 17日的 00点(UTC)到 17日的 02点(UTC)
能见度10公里或以上
散云层高于1200英尺
多云层高于2000英尺
成为
从 17日的 02点(UTC)到 17日的 04点(UTC)
风速7节,风向
几率 40% :
短暂存在
从 17日的 02点(UTC)到 17日的 10点(UTC)
多云层高于600英尺
几率 30% :
短暂存在
从 17日的 16点(UTC)到 17日的 19点(UTC)
能見度: 4000
多云层高于800英尺
多云层高于2000英尺, 塔状积云.
阵雨

TAF: LFOB 162300Z 1700/1724 27010KT 3000 DZRA BKN004 OVC020 BECMG 1700/1702 9999 NSW SCT012 BKN020 BECMG 1702/1704 19007KT PROB40 TEMPO 1702/1710 BKN006 PROB30 TEMPO 1716/1719 4000 SHRA BKN008 BKN020TCU

超过4000个机场的气象观测和天气预报(METAR&TAF报告)。

可查询的气象台以黄色和红色小点在地图上表示。

将鼠标移到小点上方,可查看气象台名称。

然后点击查看天气观测和预报。

如需切换地图:点击带黑十字的绿色按钮放大地图;点击带横线的绿色按钮缩小地图;或者点击绿色箭头查看邻近地区的地图。


METAR-TAF: